sensor_id;sensor_type;location;lat;lon;timestamp;P1;durP1;ratioP1;P2;durP2;ratioP2
81160;SDS011;70637;48.514;14.500;2023-08-07T00:00:19;0.57;;;0.52;;
81160;SDS011;70637;48.514;14.500;2023-08-07T00:02:45;0.60;;;0.57;;
81160;SDS011;70637;48.514;14.500;2023-08-07T00:05:11;0.60;;;0.60;;
81160;SDS011;70637;48.514;14.500;2023-08-07T00:07:36;0.50;;;0.50;;
81160;SDS011;70637;48.514;14.500;2023-08-07T00:10:02;0.70;;;0.52;;
81160;SDS011;70637;48.514;14.500;2023-08-07T00:12:28;0.77;;;0.60;;
81160;SDS011;70637;48.514;14.500;2023-08-07T00:14:54;2.15;;;0.70;;
81160;SDS011;70637;48.514;14.500;2023-08-07T00:17:19;2.80;;;0.80;;
81160;SDS011;70637;48.514;14.500;2023-08-07T00:19:45;0.98;;;0.65;;
81160;SDS011;70637;48.514;14.500;2023-08-07T00:22:10;0.70;;;0.70;;
81160;SDS011;70637;48.514;14.500;2023-08-07T00:24:36;0.80;;;0.80;;
81160;SDS011;70637;48.514;14.500;2023-08-07T00:27:02;1.50;;;0.73;;
81160;SDS011;70637;48.514;14.500;2023-08-07T00:29:28;2.35;;;0.88;;
81160;SDS011;70637;48.514;14.500;2023-08-07T00:31:53;3.10;;;0.80;;
81160;SDS011;70637;48.514;14.500;2023-08-07T00:34:19;3.63;;;1.08;;
81160;SDS011;70637;48.514;14.500;2023-08-07T00:36:44;2.08;;;1.10;;
81160;SDS011;70637;48.514;14.500;2023-08-07T00:39:10;1.67;;;0.82;;
81160;SDS011;70637;48.514;14.500;2023-08-07T00:41:36;3.08;;;1.20;;
81160;SDS011;70637;48.514;14.500;2023-08-07T00:44:02;1.55;;;1.00;;
81160;SDS011;70637;48.514;14.500;2023-08-07T00:46:28;2.08;;;1.20;;
81160;SDS011;70637;48.514;14.500;2023-08-07T00:48:55;2.70;;;1.20;;
81160;SDS011;70637;48.514;14.500;2023-08-07T00:51:21;4.53;;;1.15;;
81160;SDS011;70637;48.514;14.500;2023-08-07T00:53:48;1.30;;;0.82;;
81160;SDS011;70637;48.514;14.500;2023-08-07T00:56:14;2.30;;;1.00;;
81160;SDS011;70637;48.514;14.500;2023-08-07T00:58:40;2.70;;;0.90;;
81160;SDS011;70637;48.514;14.500;2023-08-07T01:01:06;1.25;;;0.93;;
81160;SDS011;70637;48.514;14.500;2023-08-07T01:03:32;1.58;;;0.98;;
81160;SDS011;70637;48.514;14.500;2023-08-07T01:05:58;3.75;;;1.10;;
81160;SDS011;70637;48.514;14.500;2023-08-07T01:08:24;1.38;;;0.80;;
81160;SDS011;70637;48.514;14.500;2023-08-07T01:16:31;1.77;;;0.93;;
81160;SDS011;70637;48.514;14.500;2023-08-07T01:19:02;3.80;;;1.00;;
81160;SDS011;70637;48.514;14.500;2023-08-07T01:21:29;1.90;;;0.82;;
81160;SDS011;70637;48.514;14.500;2023-08-07T01:23:57;3.72;;;1.10;;
81160;SDS011;70637;48.514;14.500;2023-08-07T01:26:23;1.83;;;1.00;;
81160;SDS011;70637;48.514;14.500;2023-08-07T01:28:58;1.33;;;0.90;;
81160;SDS011;70637;48.514;14.500;2023-08-07T01:34:02;1.45;;;0.82;;
81160;SDS011;70637;48.514;14.500;2023-08-07T01:36:33;1.83;;;0.95;;
81160;SDS011;70637;48.514;14.500;2023-08-07T01:38:59;1.77;;;1.20;;
81160;SDS011;70637;48.514;14.500;2023-08-07T01:41:26;1.75;;;0.80;;
81160;SDS011;70637;48.514;14.500;2023-08-07T01:43:53;1.40;;;0.90;;
81160;SDS011;70637;48.514;14.500;2023-08-07T01:46:19;3.15;;;0.95;;
81160;SDS011;70637;48.514;14.500;2023-08-07T01:48:45;1.70;;;1.10;;
81160;SDS011;70637;48.514;14.500;2023-08-07T01:51:11;2.45;;;0.90;;
81160;SDS011;70637;48.514;14.500;2023-08-07T01:53:37;1.40;;;0.80;;
81160;SDS011;70637;48.514;14.500;2023-08-07T01:56:02;2.10;;;0.80;;
81160;SDS011;70637;48.514;14.500;2023-08-07T01:58:30;1.15;;;0.80;;
81160;SDS011;70637;48.514;14.500;2023-08-07T02:00:56;1.25;;;0.88;;
81160;SDS011;70637;48.514;14.500;2023-08-07T02:03:21;1.50;;;0.80;;
81160;SDS011;70637;48.514;14.500;2023-08-07T02:05:47;1.33;;;0.88;;
81160;SDS011;70637;48.514;14.500;2023-08-07T02:08:12;1.23;;;0.70;;
81160;SDS011;70637;48.514;14.500;2023-08-07T02:10:39;1.40;;;0.90;;
81160;SDS011;70637;48.514;14.500;2023-08-07T02:13:04;2.08;;;0.68;;
81160;SDS011;70637;48.514;14.500;2023-08-07T02:15:30;1.77;;;0.70;;
81160;SDS011;70637;48.514;14.500;2023-08-07T02:17:58;1.27;;;0.68;;
81160;SDS011;70637;48.514;14.500;2023-08-07T02:20:24;0.68;;;0.57;;
81160;SDS011;70637;48.514;14.500;2023-08-07T02:22:50;2.63;;;0.90;;
81160;SDS011;70637;48.514;14.500;2023-08-07T02:25:15;0.82;;;0.63;;
81160;SDS011;70637;48.514;14.500;2023-08-07T02:27:41;0.85;;;0.63;;
81160;SDS011;70637;48.514;14.500;2023-08-07T02:30:07;1.95;;;0.80;;
81160;SDS011;70637;48.514;14.500;2023-08-07T02:32:32;2.17;;;0.80;;
81160;SDS011;70637;48.514;14.500;2023-08-07T02:34:58;1.00;;;0.70;;
81160;SDS011;70637;48.514;14.500;2023-08-07T02:37:24;1.38;;;0.68;;
81160;SDS011;70637;48.514;14.500;2023-08-07T02:39:52;2.40;;;0.85;;
81160;SDS011;70637;48.514;14.500;2023-08-07T02:42:18;0.60;;;0.60;;
81160;SDS011;70637;48.514;14.500;2023-08-07T02:44:44;0.50;;;0.50;;
81160;SDS011;70637;48.514;14.500;2023-08-07T02:47:10;1.92;;;0.60;;
81160;SDS011;70637;48.514;14.500;2023-08-07T02:49:35;2.42;;;0.77;;
81160;SDS011;70637;48.514;14.500;2023-08-07T02:52:01;0.82;;;0.70;;
81160;SDS011;70637;48.514;14.500;2023-08-07T02:54:27;1.13;;;0.52;;
81160;SDS011;70637;48.514;14.500;2023-08-07T02:56:52;0.70;;;0.50;;
81160;SDS011;70637;48.514;14.500;2023-08-07T02:59:18;1.75;;;0.68;;
81160;SDS011;70637;48.514;14.500;2023-08-07T03:01:44;1.08;;;0.50;;
81160;SDS011;70637;48.514;14.500;2023-08-07T03:04:10;1.15;;;0.50;;
81160;SDS011;70637;48.514;14.500;2023-08-07T03:06:35;1.40;;;0.60;;
81160;SDS011;70637;48.514;14.500;2023-08-07T03:09:01;1.00;;;0.60;;
81160;SDS011;70637;48.514;14.500;2023-08-07T03:11:26;1.63;;;0.60;;
81160;SDS011;70637;48.514;14.500;2023-08-07T03:13:52;1.35;;;0.60;;
81160;SDS011;70637;48.514;14.500;2023-08-07T03:16:20;0.90;;;0.60;;
81160;SDS011;70637;48.514;14.500;2023-08-07T03:18:46;0.80;;;0.50;;
81160;SDS011;70637;48.514;14.500;2023-08-07T03:21:12;0.75;;;0.50;;
81160;SDS011;70637;48.514;14.500;2023-08-07T03:23:37;0.63;;;0.43;;
81160;SDS011;70637;48.514;14.500;2023-08-07T03:26:04;1.85;;;0.50;;
81160;SDS011;70637;48.514;14.500;2023-08-07T03:28:30;0.40;;;0.40;;
81160;SDS011;70637;48.514;14.500;2023-08-07T03:30:57;0.55;;;0.50;;
81160;SDS011;70637;48.514;14.500;2023-08-07T03:33:22;0.82;;;0.52;;
81160;SDS011;70637;48.514;14.500;2023-08-07T03:35:48;0.47;;;0.40;;
81160;SDS011;70637;48.514;14.500;2023-08-07T03:38:14;0.43;;;0.43;;
81160;SDS011;70637;48.514;14.500;2023-08-07T03:40:39;1.33;;;0.40;;
81160;SDS011;70637;48.514;14.500;2023-08-07T03:43:05;0.40;;;0.40;;
81160;SDS011;70637;48.514;14.500;2023-08-07T03:45:30;0.45;;;0.40;;
81160;SDS011;70637;48.514;14.500;2023-08-07T03:47:56;0.50;;;0.40;;
81160;SDS011;70637;48.514;14.500;2023-08-07T03:50:22;0.60;;;0.40;;
81160;SDS011;70637;48.514;14.500;2023-08-07T03:52:47;0.65;;;0.40;;
81160;SDS011;70637;48.514;14.500;2023-08-07T03:55:15;0.47;;;0.40;;
81160;SDS011;70637;48.514;14.500;2023-08-07T03:57:41;0.30;;;0.30;;
81160;SDS011;70637;48.514;14.500;2023-08-07T04:00:07;0.40;;;0.40;;
81160;SDS011;70637;48.514;14.500;2023-08-07T04:02:33;0.82;;;0.38;;
81160;SDS011;70637;48.514;14.500;2023-08-07T04:04:59;0.22;;;0.22;;
81160;SDS011;70637;48.514;14.500;2023-08-07T04:07:24;0.63;;;0.50;;
81160;SDS011;70637;48.514;14.500;2023-08-07T04:09:50;0.40;;;0.38;;
81160;SDS011;70637;48.514;14.500;2023-08-07T04:12:16;0.38;;;0.38;;
81160;SDS011;70637;48.514;14.500;2023-08-07T04:14:42;0.38;;;0.30;;
81160;SDS011;70637;48.514;14.500;2023-08-07T04:17:07;0.20;;;0.20;;
81160;SDS011;70637;48.514;14.500;2023-08-07T04:19:33;0.45;;;0.25;;
81160;SDS011;70637;48.514;14.500;2023-08-07T04:21:58;0.30;;;0.30;;
81160;SDS011;70637;48.514;14.500;2023-08-07T04:24:24;0.13;;;0.13;;
81160;SDS011;70637;48.514;14.500;2023-08-07T04:26:50;0.40;;;0.35;;
81160;SDS011;70637;48.514;14.500;2023-08-07T04:29:16;0.50;;;0.40;;
81160;SDS011;70637;48.514;14.500;2023-08-07T04:31:41;0.20;;;0.20;;
81160;SDS011;70637;48.514;14.500;2023-08-07T04:34:07;0.22;;;0.20;;
81160;SDS011;70637;48.514;14.500;2023-08-07T04:36:33;0.32;;;0.30;;
81160;SDS011;70637;48.514;14.500;2023-08-07T04:38:59;0.20;;;0.20;;
81160;SDS011;70637;48.514;14.500;2023-08-07T04:41:24;1.55;;;0.38;;
81160;SDS011;70637;48.514;14.500;2023-08-07T04:43:50;0.30;;;0.30;;
81160;SDS011;70637;48.514;14.500;2023-08-07T04:46:16;0.28;;;0.28;;
81160;SDS011;70637;48.514;14.500;2023-08-07T04:48:41;0.80;;;0.32;;
81160;SDS011;70637;48.514;14.500;2023-08-07T04:51:07;0.30;;;0.30;;
81160;SDS011;70637;48.514;14.500;2023-08-07T04:53:33;0.35;;;0.35;;
81160;SDS011;70637;48.514;14.500;2023-08-07T04:55:59;0.40;;;0.40;;
81160;SDS011;70637;48.514;14.500;2023-08-07T04:58:25;4.32;;;2.13;;
81160;SDS011;70637;48.514;14.500;2023-08-07T05:00:54;0.57;;;0.32;;
81160;SDS011;70637;48.514;14.500;2023-08-07T05:03:24;0.13;;;0.13;;
81160;SDS011;70637;48.514;14.500;2023-08-07T05:05:50;0.30;;;0.30;;
81160;SDS011;70637;48.514;14.500;2023-08-07T05:08:16;0.20;;;0.20;;
81160;SDS011;70637;48.514;14.500;2023-08-07T05:10:42;0.22;;;0.22;;
81160;SDS011;70637;48.514;14.500;2023-08-07T05:13:08;0.30;;;0.30;;
81160;SDS011;70637;48.514;14.500;2023-08-07T05:15:33;0.20;;;0.20;;
81160;SDS011;70637;48.514;14.500;2023-08-07T05:17:59;0.30;;;0.30;;
81160;SDS011;70637;48.514;14.500;2023-08-07T05:20:25;0.22;;;0.20;;
81160;SDS011;70637;48.514;14.500;2023-08-07T05:22:50;0.35;;;0.30;;
81160;SDS011;70637;48.514;14.500;2023-08-07T05:25:16;0.20;;;0.20;;
81160;SDS011;70637;48.514;14.500;2023-08-07T05:27:43;1.00;;;0.52;;
81160;SDS011;70637;48.514;14.500;2023-08-07T05:30:12;0.40;;;0.30;;
81160;SDS011;70637;48.514;14.500;2023-08-07T05:32:38;0.90;;;0.47;;
81160;SDS011;70637;48.514;14.500;2023-08-07T05:35:07;0.28;;;0.20;;
81160;SDS011;70637;48.514;14.500;2023-08-07T05:37:34;0.20;;;0.20;;
81160;SDS011;70637;48.514;14.500;2023-08-07T05:40:00;0.40;;;0.40;;
81160;SDS011;70637;48.514;14.500;2023-08-07T05:42:26;0.20;;;0.20;;
81160;SDS011;70637;48.514;14.500;2023-08-07T05:44:52;0.30;;;0.20;;
81160;SDS011;70637;48.514;14.500;2023-08-07T05:47:18;0.30;;;0.20;;
81160;SDS011;70637;48.514;14.500;2023-08-07T05:49:44;0.30;;;0.30;;
81160;SDS011;70637;48.514;14.500;2023-08-07T05:52:09;0.20;;;0.20;;
81160;SDS011;70637;48.514;14.500;2023-08-07T05:54:35;0.20;;;0.20;;
81160;SDS011;70637;48.514;14.500;2023-08-07T05:57:01;0.00;;;0.00;;
81160;SDS011;70637;48.514;14.500;2023-08-07T05:59:26;0.20;;;0.20;;
81160;SDS011;70637;48.514;14.500;2023-08-07T06:01:52;0.20;;;0.20;;
81160;SDS011;70637;48.514;14.500;2023-08-07T06:04:18;0.30;;;0.28;;
81160;SDS011;70637;48.514;14.500;2023-08-07T06:06:44;0.10;;;0.10;;
81160;SDS011;70637;48.514;14.500;2023-08-07T06:09:11;0.10;;;0.10;;
81160;SDS011;70637;48.514;14.500;2023-08-07T06:11:37;0.20;;;0.20;;
81160;SDS011;70637;48.514;14.500;2023-08-07T06:14:03;0.30;;;0.30;;
81160;SDS011;70637;48.514;14.500;2023-08-07T06:16:28;0.30;;;0.30;;
81160;SDS011;70637;48.514;14.500;2023-08-07T06:18:54;0.20;;;0.20;;
81160;SDS011;70637;48.514;14.500;2023-08-07T06:21:20;0.10;;;0.10;;
81160;SDS011;70637;48.514;14.500;2023-08-07T06:23:46;0.10;;;0.10;;
81160;SDS011;70637;48.514;14.500;2023-08-07T06:26:12;0.20;;;0.20;;
81160;SDS011;70637;48.514;14.500;2023-08-07T06:28:38;1.10;;;0.80;;
81160;SDS011;70637;48.514;14.500;2023-08-07T06:31:04;1.38;;;0.70;;
81160;SDS011;70637;48.514;14.500;2023-08-07T06:33:34;0.93;;;0.52;;
81160;SDS011;70637;48.514;14.500;2023-08-07T06:36:00;0.95;;;0.52;;
81160;SDS011;70637;48.514;14.500;2023-08-07T06:38:26;0.88;;;0.50;;
81160;SDS011;70637;48.514;14.500;2023-08-07T06:40:52;0.60;;;0.60;;
81160;SDS011;70637;48.514;14.500;2023-08-07T06:43:17;0.80;;;0.50;;
81160;SDS011;70637;48.514;14.500;2023-08-07T06:45:43;0.63;;;0.47;;
81160;SDS011;70637;48.514;14.500;2023-08-07T06:48:12;0.40;;;0.40;;
81160;SDS011;70637;48.514;14.500;2023-08-07T06:50:37;0.55;;;0.40;;
81160;SDS011;70637;48.514;14.500;2023-08-07T06:53:03;0.38;;;0.38;;
81160;SDS011;70637;48.514;14.500;2023-08-07T06:55:28;0.40;;;0.40;;
81160;SDS011;70637;48.514;14.500;2023-08-07T06:57:54;1.73;;;0.50;;
81160;SDS011;70637;48.514;14.500;2023-08-07T07:00:20;0.30;;;0.30;;
81160;SDS011;70637;48.514;14.500;2023-08-07T07:02:45;0.30;;;0.30;;
81160;SDS011;70637;48.514;14.500;2023-08-07T07:05:11;0.30;;;0.30;;
81160;SDS011;70637;48.514;14.500;2023-08-07T07:07:37;0.40;;;0.40;;
81160;SDS011;70637;48.514;14.500;2023-08-07T07:10:03;2.42;;;0.60;;
81160;SDS011;70637;48.514;14.500;2023-08-07T07:12:29;0.25;;;0.25;;
81160;SDS011;70637;48.514;14.500;2023-08-07T07:14:55;0.45;;;0.40;;
81160;SDS011;70637;48.514;14.500;2023-08-07T07:17:20;1.02;;;0.45;;
81160;SDS011;70637;48.514;14.500;2023-08-07T07:19:47;0.10;;;0.10;;
81160;SDS011;70637;48.514;14.500;2023-08-07T07:22:13;0.52;;;0.40;;
81160;SDS011;70637;48.514;14.500;2023-08-07T07:24:39;0.57;;;0.40;;
81160;SDS011;70637;48.514;14.500;2023-08-07T07:27:05;0.40;;;0.40;;
81160;SDS011;70637;48.514;14.500;2023-08-07T07:29:31;0.40;;;0.40;;
81160;SDS011;70637;48.514;14.500;2023-08-07T07:31:57;0.35;;;0.35;;
81160;SDS011;70637;48.514;14.500;2023-08-07T07:34:23;0.63;;;0.47;;
81160;SDS011;70637;48.514;14.500;2023-08-07T07:36:48;0.70;;;0.60;;
81160;SDS011;70637;48.514;14.500;2023-08-07T07:39:15;0.43;;;0.43;;
81160;SDS011;70637;48.514;14.500;2023-08-07T07:41:42;0.65;;;0.50;;
81160;SDS011;70637;48.514;14.500;2023-08-07T07:44:08;1.13;;;0.40;;
81160;SDS011;70637;48.514;14.500;2023-08-07T07:46:34;0.77;;;0.50;;
81160;SDS011;70637;48.514;14.500;2023-08-07T07:49:00;0.52;;;0.43;;
81160;SDS011;70637;48.514;14.500;2023-08-07T07:51:28;1.20;;;0.45;;
81160;SDS011;70637;48.514;14.500;2023-08-07T07:53:54;0.85;;;0.30;;
81160;SDS011;70637;48.514;14.500;2023-08-07T07:56:20;0.40;;;0.30;;
81160;SDS011;70637;48.514;14.500;2023-08-07T07:58:46;0.40;;;0.40;;
81160;SDS011;70637;48.514;14.500;2023-08-07T08:01:11;0.50;;;0.50;;
81160;SDS011;70637;48.514;14.500;2023-08-07T08:03:37;0.80;;;0.30;;
81160;SDS011;70637;48.514;14.500;2023-08-07T08:06:03;3.13;;;0.55;;
81160;SDS011;70637;48.514;14.500;2023-08-07T08:08:29;1.05;;;0.50;;
81160;SDS011;70637;48.514;14.500;2023-08-07T08:10:54;1.05;;;0.40;;
81160;SDS011;70637;48.514;14.500;2023-08-07T08:13:20;0.57;;;0.40;;
81160;SDS011;70637;48.514;14.500;2023-08-07T08:15:46;0.32;;;0.30;;
81160;SDS011;70637;48.514;14.500;2023-08-07T08:18:11;1.73;;;0.70;;
81160;SDS011;70637;48.514;14.500;2023-08-07T08:20:38;1.05;;;0.35;;
81160;SDS011;70637;48.514;14.500;2023-08-07T08:23:04;0.30;;;0.30;;
81160;SDS011;70637;48.514;14.500;2023-08-07T08:25:30;0.47;;;0.40;;
81160;SDS011;70637;48.514;14.500;2023-08-07T08:27:57;0.50;;;0.40;;
81160;SDS011;70637;48.514;14.500;2023-08-07T08:30:25;1.15;;;0.30;;
81160;SDS011;70637;48.514;14.500;2023-08-07T08:32:51;0.47;;;0.32;;
81160;SDS011;70637;48.514;14.500;2023-08-07T08:35:17;0.55;;;0.32;;
81160;SDS011;70637;48.514;14.500;2023-08-07T08:37:45;1.63;;;0.40;;
81160;SDS011;70637;48.514;14.500;2023-08-07T08:40:10;0.40;;;0.40;;
81160;SDS011;70637;48.514;14.500;2023-08-07T08:42:44;1.60;;;0.57;;
81160;SDS011;70637;48.514;14.500;2023-08-07T08:45:11;0.70;;;0.50;;
81160;SDS011;70637;48.514;14.500;2023-08-07T08:47:39;0.40;;;0.32;;
81160;SDS011;70637;48.514;14.500;2023-08-07T08:50:09;0.93;;;0.40;;
81160;SDS011;70637;48.514;14.500;2023-08-07T08:52:37;0.40;;;0.40;;
81160;SDS011;70637;48.514;14.500;2023-08-07T08:55:06;2.22;;;0.57;;
81160;SDS011;70637;48.514;14.500;2023-08-07T08:57:32;1.65;;;0.40;;
81160;SDS011;70637;48.514;14.500;2023-08-07T08:59:58;0.77;;;0.40;;
81160;SDS011;70637;48.514;14.500;2023-08-07T09:02:25;0.75;;;0.60;;
81160;SDS011;70637;48.514;14.500;2023-08-07T09:04:51;0.45;;;0.43;;
81160;SDS011;70637;48.514;14.500;2023-08-07T09:07:17;2.13;;;0.40;;
81160;SDS011;70637;48.514;14.500;2023-08-07T09:09:47;1.13;;;0.70;;
81160;SDS011;70637;48.514;14.500;2023-08-07T09:12:20;2.20;;;1.60;;
81160;SDS011;70637;48.514;14.500;2023-08-07T09:14:52;0.93;;;0.40;;
81160;SDS011;70637;48.514;14.500;2023-08-07T09:17:27;0.47;;;0.47;;
81160;SDS011;70637;48.514;14.500;2023-08-07T09:19:56;0.38;;;0.38;;
81160;SDS011;70637;48.514;14.500;2023-08-07T09:22:23;1.00;;;0.30;;
81160;SDS011;70637;48.514;14.500;2023-08-07T09:24:49;0.30;;;0.30;;
81160;SDS011;70637;48.514;14.500;2023-08-07T09:27:15;0.47;;;0.40;;
81160;SDS011;70637;48.514;14.500;2023-08-07T09:29:40;1.27;;;0.50;;
81160;SDS011;70637;48.514;14.500;2023-08-07T09:32:16;0.40;;;0.40;;
81160;SDS011;70637;48.514;14.500;2023-08-07T09:34:43;1.00;;;0.63;;
81160;SDS011;70637;48.514;14.500;2023-08-07T09:37:09;1.17;;;0.40;;
81160;SDS011;70637;48.514;14.500;2023-08-07T09:39:35;0.68;;;0.40;;
81160;SDS011;70637;48.514;14.500;2023-08-07T09:42:05;0.77;;;0.70;;
81160;SDS011;70637;48.514;14.500;2023-08-07T09:44:41;0.30;;;0.30;;
81160;SDS011;70637;48.514;14.500;2023-08-07T09:47:17;0.38;;;0.38;;
81160;SDS011;70637;48.514;14.500;2023-08-07T09:49:44;0.52;;;0.50;;
81160;SDS011;70637;48.514;14.500;2023-08-07T09:52:11;1.58;;;0.50;;
81160;SDS011;70637;48.514;14.500;2023-08-07T09:54:39;0.40;;;0.40;;
81160;SDS011;70637;48.514;14.500;2023-08-07T09:57:05;0.43;;;0.30;;
81160;SDS011;70637;48.514;14.500;2023-08-07T09:59:32;0.70;;;0.50;;
81160;SDS011;70637;48.514;14.500;2023-08-07T10:01:59;1.05;;;0.50;;
81160;SDS011;70637;48.514;14.500;2023-08-07T10:04:27;1.67;;;0.60;;
81160;SDS011;70637;48.514;14.500;2023-08-07T10:06:53;2.58;;;0.38;;
81160;SDS011;70637;48.514;14.500;2023-08-07T10:09:19;0.98;;;0.52;;
81160;SDS011;70637;48.514;14.500;2023-08-07T10:11:46;0.85;;;0.45;;
81160;SDS011;70637;48.514;14.500;2023-08-07T10:14:14;0.40;;;0.40;;
81160;SDS011;70637;48.514;14.500;2023-08-07T10:16:41;1.55;;;0.70;;
81160;SDS011;70637;48.514;14.500;2023-08-07T10:19:10;1.60;;;0.60;;
81160;SDS011;70637;48.514;14.500;2023-08-07T10:21:38;0.50;;;0.50;;
81160;SDS011;70637;48.514;14.500;2023-08-07T10:24:05;0.63;;;0.57;;
81160;SDS011;70637;48.514;14.500;2023-08-07T10:26:32;0.70;;;0.50;;
81160;SDS011;70637;48.514;14.500;2023-08-07T10:29:00;0.82;;;0.52;;
81160;SDS011;70637;48.514;14.500;2023-08-07T10:31:29;0.57;;;0.43;;
81160;SDS011;70637;48.514;14.500;2023-08-07T10:33:56;1.63;;;0.70;;
81160;SDS011;70637;48.514;14.500;2023-08-07T10:36:22;2.67;;;0.73;;
81160;SDS011;70637;48.514;14.500;2023-08-07T10:38:51;0.50;;;0.50;;
81160;SDS011;70637;48.514;14.500;2023-08-07T10:41:41;0.55;;;0.55;;
81160;SDS011;70637;48.514;14.500;2023-08-07T10:44:19;0.63;;;0.52;;
81160;SDS011;70637;48.514;14.500;2023-08-07T10:46:55;2.05;;;0.50;;
81160;SDS011;70637;48.514;14.500;2023-08-07T10:49:31;0.50;;;0.50;;
81160;SDS011;70637;48.514;14.500;2023-08-07T10:52:03;0.82;;;0.60;;
81160;SDS011;70637;48.514;14.500;2023-08-07T10:54:31;0.73;;;0.50;;
81160;SDS011;70637;48.514;14.500;2023-08-07T10:57:09;0.50;;;0.50;;
81160;SDS011;70637;48.514;14.500;2023-08-07T10:59:37;0.68;;;0.50;;
81160;SDS011;70637;48.514;14.500;2023-08-07T11:02:03;0.50;;;0.50;;
81160;SDS011;70637;48.514;14.500;2023-08-07T11:04:36;0.65;;;0.52;;
81160;SDS011;70637;48.514;14.500;2023-08-07T11:07:02;0.90;;;0.60;;
81160;SDS011;70637;48.514;14.500;2023-08-07T11:09:28;1.60;;;0.80;;
81160;SDS011;70637;48.514;14.500;2023-08-07T11:11:54;0.52;;;0.52;;
81160;SDS011;70637;48.514;14.500;2023-08-07T11:14:19;1.15;;;0.50;;
81160;SDS011;70637;48.514;14.500;2023-08-07T11:16:45;1.65;;;0.60;;
81160;SDS011;70637;48.514;14.500;2023-08-07T11:19:16;1.13;;;0.60;;
81160;SDS011;70637;48.514;14.500;2023-08-07T11:21:43;0.82;;;0.60;;
81160;SDS011;70637;48.514;14.500;2023-08-07T11:24:12;0.85;;;0.57;;
81160;SDS011;70637;48.514;14.500;2023-08-07T11:26:38;2.65;;;0.77;;
81160;SDS011;70637;48.514;14.500;2023-08-07T11:29:04;1.13;;;0.65;;
81160;SDS011;70637;48.514;14.500;2023-08-07T11:31:29;0.68;;;0.60;;
81160;SDS011;70637;48.514;14.500;2023-08-07T11:33:55;1.05;;;0.70;;
81160;SDS011;70637;48.514;14.500;2023-08-07T11:36:27;1.45;;;0.80;;
81160;SDS011;70637;48.514;14.500;2023-08-07T11:38:54;1.63;;;1.00;;
81160;SDS011;70637;48.514;14.500;2023-08-07T11:41:19;1.85;;;0.80;;
81160;SDS011;70637;48.514;14.500;2023-08-07T11:43:45;1.55;;;0.65;;
81160;SDS011;70637;48.514;14.500;2023-08-07T11:46:12;1.92;;;0.88;;
81160;SDS011;70637;48.514;14.500;2023-08-07T11:48:39;2.05;;;0.65;;
81160;SDS011;70637;48.514;14.500;2023-08-07T11:51:07;1.70;;;0.70;;
81160;SDS011;70637;48.514;14.500;2023-08-07T11:53:36;1.45;;;0.73;;
81160;SDS011;70637;48.514;14.500;2023-08-07T11:56:08;0.90;;;0.65;;
81160;SDS011;70637;48.514;14.500;2023-08-07T11:58:35;1.13;;;0.68;;
81160;SDS011;70637;48.514;14.500;2023-08-07T12:01:09;0.40;;;0.40;;
81160;SDS011;70637;48.514;14.500;2023-08-07T12:03:37;1.23;;;0.70;;
81160;SDS011;70637;48.514;14.500;2023-08-07T12:06:04;1.10;;;0.60;;
81160;SDS011;70637;48.514;14.500;2023-08-07T12:08:34;1.10;;;0.70;;
81160;SDS011;70637;48.514;14.500;2023-08-07T12:11:09;0.60;;;0.50;;
81160;SDS011;70637;48.514;14.500;2023-08-07T12:13:41;1.83;;;1.27;;
81160;SDS011;70637;48.514;14.500;2023-08-07T12:16:09;2.45;;;1.25;;
81160;SDS011;70637;48.514;14.500;2023-08-07T12:18:40;2.45;;;0.70;;
81160;SDS011;70637;48.514;14.500;2023-08-07T12:23:43;1.13;;;0.73;;
81160;SDS011;70637;48.514;14.500;2023-08-07T12:26:09;2.25;;;0.60;;
81160;SDS011;70637;48.514;14.500;2023-08-07T12:28:35;3.38;;;1.13;;
81160;SDS011;70637;48.514;14.500;2023-08-07T12:31:01;6.10;;;1.33;;
81160;SDS011;70637;48.514;14.500;2023-08-07T12:33:28;1.23;;;0.80;;
81160;SDS011;70637;48.514;14.500;2023-08-07T12:35:54;1.17;;;0.80;;
81160;SDS011;70637;48.514;14.500;2023-08-07T12:38:20;0.80;;;0.60;;
81160;SDS011;70637;48.514;14.500;2023-08-07T12:40:45;3.25;;;1.30;;
81160;SDS011;70637;48.514;14.500;2023-08-07T12:43:11;1.15;;;0.73;;
81160;SDS011;70637;48.514;14.500;2023-08-07T12:45:37;1.55;;;0.82;;
81160;SDS011;70637;48.514;14.500;2023-08-07T12:48:03;1.58;;;0.70;;
81160;SDS011;70637;48.514;14.500;2023-08-07T12:50:29;1.50;;;0.90;;
81160;SDS011;70637;48.514;14.500;2023-08-07T12:52:57;1.23;;;0.80;;
81160;SDS011;70637;48.514;14.500;2023-08-07T12:55:23;0.70;;;0.70;;
81160;SDS011;70637;48.514;14.500;2023-08-07T12:57:50;0.95;;;0.80;;
81160;SDS011;70637;48.514;14.500;2023-08-07T13:00:17;1.60;;;0.90;;
81160;SDS011;70637;48.514;14.500;2023-08-07T13:02:47;2.28;;;1.08;;
81160;SDS011;70637;48.514;14.500;2023-08-07T13:05:14;2.15;;;0.80;;
81160;SDS011;70637;48.514;14.500;2023-08-07T13:07:42;1.08;;;0.90;;
81160;SDS011;70637;48.514;14.500;2023-08-07T13:10:09;4.07;;;1.10;;
81160;SDS011;70637;48.514;14.500;2023-08-07T13:12:38;1.63;;;0.90;;
81160;SDS011;70637;48.514;14.500;2023-08-07T13:15:05;1.73;;;0.90;;
81160;SDS011;70637;48.514;14.500;2023-08-07T13:17:33;1.05;;;0.90;;
81160;SDS011;70637;48.514;14.500;2023-08-07T13:20:02;1.25;;;0.80;;
81160;SDS011;70637;48.514;14.500;2023-08-07T13:22:33;1.08;;;0.70;;
81160;SDS011;70637;48.514;14.500;2023-08-07T13:24:59;1.08;;;0.70;;
81160;SDS011;70637;48.514;14.500;2023-08-07T13:27:25;2.25;;;1.10;;
81160;SDS011;70637;48.514;14.500;2023-08-07T13:29:52;2.28;;;1.00;;
81160;SDS011;70637;48.514;14.500;2023-08-07T13:32:17;1.80;;;0.70;;
81160;SDS011;70637;48.514;14.500;2023-08-07T13:34:45;1.52;;;0.80;;
81160;SDS011;70637;48.514;14.500;2023-08-07T13:37:11;1.13;;;0.82;;
81160;SDS011;70637;48.514;14.500;2023-08-07T13:39:37;1.85;;;0.80;;
81160;SDS011;70637;48.514;14.500;2023-08-07T13:42:02;1.70;;;0.80;;
81160;SDS011;70637;48.514;14.500;2023-08-07T13:44:28;1.85;;;1.10;;
81160;SDS011;70637;48.514;14.500;2023-08-07T13:46:54;2.13;;;1.00;;
81160;SDS011;70637;48.514;14.500;2023-08-07T13:49:21;2.45;;;1.02;;
81160;SDS011;70637;48.514;14.500;2023-08-07T13:51:48;2.83;;;0.98;;
81160;SDS011;70637;48.514;14.500;2023-08-07T13:54:14;1.63;;;1.00;;
81160;SDS011;70637;48.514;14.500;2023-08-07T13:56:40;3.25;;;0.98;;
81160;SDS011;70637;48.514;14.500;2023-08-07T13:59:06;1.90;;;1.20;;
81160;SDS011;70637;48.514;14.500;2023-08-07T14:01:32;5.32;;;1.33;;
81160;SDS011;70637;48.514;14.500;2023-08-07T14:03:59;2.72;;;0.95;;
81160;SDS011;70637;48.514;14.500;2023-08-07T14:06:26;1.65;;;1.00;;
81160;SDS011;70637;48.514;14.500;2023-08-07T14:08:51;2.60;;;1.20;;
81160;SDS011;70637;48.514;14.500;2023-08-07T14:11:17;1.80;;;1.20;;
81160;SDS011;70637;48.514;14.500;2023-08-07T14:13:44;1.58;;;1.08;;
81160;SDS011;70637;48.514;14.500;2023-08-07T14:16:11;2.45;;;1.00;;
81160;SDS011;70637;48.514;14.500;2023-08-07T14:18:37;2.88;;;1.00;;
81160;SDS011;70637;48.514;14.500;2023-08-07T14:21:02;2.38;;;1.00;;
81160;SDS011;70637;48.514;14.500;2023-08-07T14:23:28;1.42;;;0.90;;
81160;SDS011;70637;48.514;14.500;2023-08-07T14:25:54;1.60;;;0.85;;
81160;SDS011;70637;48.514;14.500;2023-08-07T14:28:19;2.28;;;0.95;;
81160;SDS011;70637;48.514;14.500;2023-08-07T14:30:45;2.05;;;1.10;;
81160;SDS011;70637;48.514;14.500;2023-08-07T14:33:11;8.70;;;2.80;;
81160;SDS011;70637;48.514;14.500;2023-08-07T14:35:36;1.02;;;0.70;;
81160;SDS011;70637;48.514;14.500;2023-08-07T14:38:02;1.30;;;0.90;;
81160;SDS011;70637;48.514;14.500;2023-08-07T14:40:28;2.10;;;1.25;;